Terminal Aerodrome Forecast
Issued by NWS Jacksonville, FL

Home | Current Version | Previous Version | Text Only | Print | Product List | Glossary On
Versions: 1 2 3 4 5 6 7 8 9 10 11 12 13 14 15 16 17 18 19
000
FTUS42 KJAX 161700
TAFSSI
TAF
KSSI 161729Z 1618/1718 30006KT P6SM SCT015 BKN030
     FM162000 24007KT P6SM VCSH SCT020 BKN050
      TEMPO 1623/1701 VRB12KT 2SM TSRA BKN025CB
     FM170300 26003KT P6SM SCT020 BKN250
     FM171200 32003KT P6SM BKN020
     FM171500 34003KT P6SM FEW020=

USA.gov is the U.S. government's official web portal to all federal, state and local government web resources and services.